Time;durP1;ratioP1;P1;durP2;ratioP2;P2;SDS_P1;SDS_P2;PMS_P1;PMS_P2;Temp;Humidity;BMP_temperature;BMP_pressure;BME280_temperature;BME280_humidity;BME280_pressure;Samples;Min_cycle;Max_cycle;Signal;HPM_P1;HPM_P2
2021/04/17 00:01:43;;;;;;;7.90;6.43;;;;;;;24.94;17.76;96211.78;6205392;23;20697;-57
2021/04/17 00:04:09;;;;;;;8.30;6.03;;;;;;;24.96;18.07;96212.28;6178258;23;20012;-57
2021/04/17 00:06:35;;;;;;;6.43;5.15;;;;;;;24.96;17.81;96212.28;6203004;23;20017;-57
2021/04/17 00:09:01;;;;;;;6.93;5.30;;;;;;;24.97;17.68;96205.66;6203413;23;20016;-57
2021/04/17 00:11:27;;;;;;;6.30;5.18;;;;;;;24.98;17.70;96201.81;6202467;23;20091;-57
2021/04/17 00:13:53;;;;;;;7.10;4.57;;;;;;;24.98;18.02;96202.59;6204144;23;20020;-57
2021/04/17 00:16:19;;;;;;;6.07;4.95;;;;;;;24.98;17.80;96199.06;6204048;23;20017;-57
2021/04/17 00:18:45;;;;;;;6.25;5.00;;;;;;;24.98;18.08;96201.81;6203461;23;20024;-57
2021/04/17 00:21:10;;;;;;;5.75;4.80;;;;;;;24.97;18.16;96195.50;6204173;23;20042;-57
2021/04/17 00:23:36;;;;;;;5.68;4.13;;;;;;;24.99;17.81;96203.41;6204728;23;20328;-57
2021/04/17 00:26:02;;;;;;;6.70;5.00;;;;;;;24.99;18.04;96198.72;6202525;23;20591;-57
2021/04/17 00:28:27;;;;;;;4.55;3.67;;;;;;;24.98;17.97;96186.16;6204024;23;20476;-57
2021/04/17 00:30:53;;;;;;;5.57;4.50;;;;;;;24.98;17.78;96190.84;6204624;23;20105;-58
2021/04/17 00:33:18;;;;;;;5.68;4.97;;;;;;;24.98;17.70;96193.56;6204222;23;20112;-56
2021/04/17 00:35:44;;;;;;;5.07;4.00;;;;;;;24.96;17.66;96191.16;6204380;23;20635;-58
2021/04/17 00:38:09;;;;;;;5.65;4.05;;;;;;;24.97;18.08;96197.44;6202519;23;20119;-59
2021/04/17 00:40:35;;;;;;;5.18;4.03;;;;;;;24.95;17.45;96189.53;6204548;23;20419;-56
2021/04/17 00:43:01;;;;;;;5.88;4.47;;;;;;;24.95;17.77;96192.25;6203293;23;20039;-57
2021/04/17 00:45:26;;;;;;;4.63;3.85;;;;;;;24.94;17.97;96190.66;6204508;23;20082;-56
2021/04/17 00:47:52;;;;;;;4.63;3.60;;;;;;;24.94;17.88;96189.84;6204187;23;20017;-56
2021/04/17 00:50:17;;;;;;;5.00;3.97;;;;;;;24.94;17.60;96184.38;6202242;23;20033;-56
2021/04/17 00:52:43;;;;;;;3.60;2.95;;;;;;;24.92;18.02;96190.16;6204733;23;20032;-57
2021/04/17 00:55:09;;;;;;;3.92;3.17;;;;;;;24.91;17.48;96188.56;6205728;23;20017;-57
2021/04/17 00:57:35;;;;;;;4.72;3.53;;;;;;;24.90;17.83;96186.94;6177455;23;20016;-57
2021/04/17 01:00:01;;;;;;;3.13;2.83;;;;;;;24.90;17.92;96186.94;6204089;23;20348;-60
2021/04/17 01:02:33;;;;;;;4.13;3.20;;;;;;;24.88;17.67;96186.44;6205497;23;20023;-57
2021/04/17 01:04:59;;;;;;;4.13;2.90;;;;;;;24.87;17.93;96190.31;6204877;23;20009;-59
2021/04/17 01:07:32;;;;;;;3.00;2.72;;;;;;;24.84;18.09;96189.00;6206055;23;20040;-58
2021/04/17 01:10:44;;;;;;;3.47;2.88;;;;;;;24.83;17.89;96189.34;6204589;23;20013;-58
2021/04/17 01:13:10;;;;;;;3.88;3.35;;;;;;;24.82;17.85;96191.25;6199065;23;20021;-56
2021/04/17 01:15:38;;;;;;;3.30;2.53;;;;;;;24.79;17.73;96189.16;6205546;23;20256;-57
2021/04/17 01:18:04;;;;;;;2.97;2.70;;;;;;;24.79;17.71;96188.34;6204927;23;20021;-57
2021/04/17 01:21:02;;;;;;;3.67;2.50;;;;;;;24.76;17.61;96184.28;6204825;23;20013;-57
2021/04/17 01:23:43;;;;;;;3.08;2.50;;;;;;;24.75;17.82;96184.63;6154332;23;20082;-58
2021/04/17 01:26:16;;;;;;;2.70;2.50;;;;;;;24.75;17.80;96177.22;6179742;23;20009;-57
2021/04/17 01:28:43;;;;;;;3.55;2.78;;;;;;;24.73;17.54;96178.66;6206336;23;20015;-58
2021/04/17 01:31:11;;;;;;;2.92;2.03;;;;;;;24.71;17.56;96180.91;6206091;23;20021;-58
2021/04/17 01:33:38;;;;;;;2.65;2.20;;;;;;;24.70;17.88;96177.34;6205976;23;20462;-58
2021/04/17 01:36:04;;;;;;;2.65;2.15;;;;;;;24.68;17.50;96185.06;6204270;23;20072;-58
2021/04/17 01:38:34;;;;;;;1.90;1.80;;;;;;;24.66;17.45;96179.13;6204534;23;20097;-58
2021/04/17 01:41:02;;;;;;;3.08;2.15;;;;;;;24.63;17.48;96177.78;6204147;23;20020;-58
2021/04/17 01:43:28;;;;;;;2.35;2.00;;;;;;;24.63;17.72;96177.00;6205840;23;20008;-58
2021/04/17 01:45:57;;;;;;;2.35;1.92;;;;;;;24.59;17.66;96178.75;6205820;23;20483;-58
2021/04/17 01:48:22;;;;;;;1.77;1.67;;;;;;;24.56;17.41;96185.66;6203638;23;20596;-58
2021/04/17 01:50:48;;;;;;;1.92;1.83;;;;;;;24.53;17.94;96186.28;6205592;23;20015;-58
2021/04/17 01:53:19;;;;;;;2.78;1.80;;;;;;;24.51;17.49;96180.31;6180179;23;20579;-57
2021/04/17 01:55:45;;;;;;;2.25;2.05;;;;;;;24.48;17.60;96178.97;6207120;23;20017;-57
2021/04/17 01:58:11;;;;;;;1.77;1.55;;;;;;;24.47;17.68;96177.38;6205430;23;20352;-58
2021/04/17 02:00:36;;;;;;;1.88;1.75;;;;;;;24.44;17.42;96172.50;6178931;23;20016;-58
2021/04/17 02:03:02;;;;;;;1.73;1.63;;;;;;;24.41;17.69;96175.91;6204125;23;20035;-58
2021/04/17 02:05:28;;;;;;;2.22;1.70;;;;;;;24.38;17.66;96162.81;6205107;23;20023;-59
2021/04/17 02:07:57;;;;;;;1.63;1.42;;;;;;;24.34;17.77;96161.03;6203892;23;20017;-58
2021/04/17 02:10:23;;;;;;;1.77;1.67;;;;;;;24.33;17.42;96165.69;6178800;23;20016;-57
2021/04/17 02:12:49;;;;;;;1.80;1.70;;;;;;;24.29;17.47;96164.72;6205083;23;20013;-58
2021/04/17 02:15:15;;;;;;;1.40;1.30;;;;;;;24.28;17.78;96169.38;6204558;23;20020;-57
2021/04/17 02:17:58;;;;;;;1.30;1.20;;;;;;;24.23;17.88;96166.75;6205381;23;20459;-57
2021/04/17 02:20:34;;;;;;;1.33;1.05;;;;;;;24.18;17.44;96164.16;6204046;23;20008;-58
2021/04/17 02:23:00;;;;;;;1.48;1.38;;;;;;;24.15;17.68;96172.19;6203699;23;20012;-58
2021/04/17 02:25:26;;;;;;;1.73;1.55;;;;;;;24.14;17.65;96171.38;6204927;23;20020;-57
2021/04/17 02:27:51;;;;;;;1.75;1.50;;;;;;;24.12;17.82;96164.63;6203933;23;20036;-57
2021/04/17 02:30:17;;;;;;;1.70;1.30;;;;;;;24.08;17.75;96165.22;6203531;23;20143;-58
2021/04/17 02:32:43;;;;;;;1.13;1.13;;;;;;;24.04;17.50;96160.69;6206159;23;20101;-57
2021/04/17 02:35:09;;;;;;;1.40;1.30;;;;;;;24.02;17.73;96157.47;6202934;23;20024;-57
2021/04/17 02:37:34;;;;;;;1.23;1.13;;;;;;;23.96;17.90;96145.81;6205404;23;20108;-58
2021/04/17 02:40:00;;;;;;;1.10;1.10;;;;;;;23.94;18.11;96148.06;6205069;23;20407;-57
2021/04/17 02:42:25;;;;;;;1.10;1.10;;;;;;;23.90;18.04;96149.81;6203879;23;20465;-57
2021/04/17 02:44:51;;;;;;;1.35;1.20;;;;;;;23.86;17.96;96152.38;6204948;23;20017;-58
2021/04/17 02:47:17;;;;;;;1.35;1.25;;;;;;;23.84;18.02;96154.59;6203594;23;20330;-58
2021/04/17 02:49:44;;;;;;;1.30;1.20;;;;;;;23.81;18.06;96157.94;6205523;23;20771;-57
2021/04/17 02:52:09;;;;;;;1.80;1.20;;;;;;;23.78;18.38;96155.00;6228781;23;20092;-57
2021/04/17 02:54:35;;;;;;;0.85;0.85;;;;;;;23.76;18.22;96152.63;6203500;23;20106;-57
2021/04/17 02:57:00;;;;;;;1.52;1.23;;;;;;;23.73;18.08;96157.84;6208080;23;20016;-57
2021/04/17 02:59:26;;;;;;;0.93;0.93;;;;;;;23.67;18.17;96149.75;6204883;23;20024;-57
2021/04/17 03:01:52;;;;;;;1.25;1.10;;;;;;;23.65;18.35;96154.72;6205027;23;20012;-57
2021/04/17 03:04:17;;;;;;;1.20;1.10;;;;;;;23.62;18.26;96149.88;6204837;23;20012;-58
2021/04/17 03:06:43;;;;;;;1.08;0.98;;;;;;;23.58;18.57;96156.28;6205407;23;20015;-59
2021/04/17 03:09:08;;;;;;;1.02;1.02;;;;;;;23.56;18.38;96158.53;6205476;23;20028;-57
2021/04/17 03:11:34;;;;;;;1.38;1.20;;;;;;;23.51;18.39;96153.97;6203994;23;20012;-57
2021/04/17 03:14:00;;;;;;;1.10;1.10;;;;;;;23.48;18.55;96155.38;6204765;23;20016;-57
2021/04/17 03:16:25;;;;;;;1.20;1.20;;;;;;;23.44;18.45;96156.31;6204640;23;20452;-57
2021/04/17 03:18:51;;;;;;;1.00;1.00;;;;;;;23.41;18.33;96156.94;6205014;23;20079;-57
2021/04/17 03:21:16;;;;;;;0.80;0.80;;;;;;;23.38;18.56;96157.53;6205407;23;20531;-59
2021/04/17 03:23:42;;;;;;;0.88;0.88;;;;;;;23.34;18.41;96156.53;6205617;23;20013;-57
2021/04/17 03:26:08;;;;;;;1.02;1.00;;;;;;;23.32;18.55;96156.03;6204357;23;20070;-57
2021/04/17 03:28:33;;;;;;;0.82;0.82;;;;;;;23.27;18.35;96156.97;6204692;23;20516;-57
2021/04/17 03:30:59;;;;;;;0.93;0.93;;;;;;;23.24;18.32;96163.84;6203498;23;20020;-56
2021/04/17 03:33:24;;;;;;;1.00;1.00;;;;;;;23.21;18.68;96161.72;6203280;23;20019;-57
2021/04/17 03:35:50;;;;;;;1.83;0.98;;;;;;;23.17;18.60;96160.72;6204557;23;20012;-57
2021/04/17 03:38:16;;;;;;;0.95;0.95;;;;;;;23.13;18.66;96161.63;6203352;23;20368;-57
2021/04/17 03:40:41;;;;;;;1.45;1.00;;;;;;;23.11;18.67;96161.13;6204063;23;20352;-57
2021/04/17 03:43:07;;;;;;;0.93;0.93;;;;;;;23.07;18.82;96158.22;6205085;23;20013;-56
2021/04/17 03:45:33;;;;;;;1.25;1.15;;;;;;;23.02;18.72;96156.38;6204952;23;20039;-56
2021/04/17 03:47:58;;;;;;;1.10;1.00;;;;;;;22.97;18.59;96152.94;6204564;23;20021;-57
2021/04/17 03:50:24;;;;;;;1.13;1.13;;;;;;;22.95;18.61;96164.16;6204538;23;20456;-57
2021/04/17 03:52:50;;;;;;;0.88;0.88;;;;;;;22.91;18.55;96159.63;6205128;23;20032;-56
2021/04/17 03:55:16;;;;;;;1.40;1.00;;;;;;;22.86;18.65;96155.03;6206347;23;20526;-59
2021/04/17 03:57:43;;;;;;;1.00;0.93;;;;;;;22.83;18.79;96161.13;6205950;23;20062;-59
2021/04/17 04:00:10;;;;;;;1.00;0.90;;;;;;;22.79;18.66;96157.38;6177261;23;20029;-59
2021/04/17 04:02:36;;;;;;;1.17;1.08;;;;;;;22.76;18.91;96156.06;6205138;23;20204;-59
2021/04/17 04:05:02;;;;;;;1.27;0.98;;;;;;;22.74;18.91;96157.50;6204601;23;20008;-58
2021/04/17 04:07:27;;;;;;;8.75;1.45;;;;;;;22.70;18.79;96154.56;6204161;23;20021;-59
2021/04/17 04:09:53;;;;;;;2.70;1.30;;;;;;;22.65;18.79;96154.63;6203908;23;20067;-59
2021/04/17 04:12:19;;;;;;;2.25;1.20;;;;;;;22.63;18.75;96156.88;6203355;23;20016;-59
2021/04/17 04:14:44;;;;;;;3.63;1.33;;;;;;;22.60;18.74;96155.56;6205762;23;20016;-58
2021/04/17 04:17:10;;;;;;;3.25;1.10;;;;;;;22.57;18.71;96156.16;6203139;23;20119;-59
2021/04/17 04:19:35;;;;;;;1.75;1.65;;;;;;;22.55;18.69;96161.13;6204551;23;20333;-59
2021/04/17 04:22:01;;;;;;;2.58;1.58;;;;;;;22.52;18.64;96160.91;6204431;23;20020;-58
2021/04/17 04:24:26;;;;;;;3.00;1.80;;;;;;;22.50;18.83;96160.41;6204236;23;20090;-58
2021/04/17 04:26:52;;;;;;;4.20;2.15;;;;;;;22.45;18.82;96162.13;6203303;23;20437;-59
2021/04/17 04:29:18;;;;;;;3.08;2.13;;;;;;;22.43;18.70;96161.59;6204249;23;20096;-58
2021/04/17 04:31:43;;;;;;;4.32;2.83;;;;;;;22.42;18.78;96170.09;6203481;23;20062;-58
2021/04/17 04:34:09;;;;;;;3.65;2.75;;;;;;;22.41;18.76;96168.47;6177970;23;20017;-58
2021/04/17 04:36:34;;;;;;;6.00;3.60;;;;;;;22.42;18.86;96164.63;6204853;23;20051;-59
2021/04/17 04:39:00;;;;;;;5.50;3.95;;;;;;;22.41;18.50;96165.75;6179865;23;20019;-59
2021/04/17 04:41:25;;;;;;;6.85;4.30;;;;;;;22.41;18.48;96166.56;6205575;23;20071;-59
2021/04/17 04:43:51;;;;;;;6.90;4.43;;;;;;;22.40;18.46;96164.13;6206756;23;20087;-59
2021/04/17 04:46:17;;;;;;;9.15;5.35;;;;;;;22.41;18.64;96173.94;6206270;23;20444;-59
2021/04/17 04:48:42;;;;;;;7.75;5.03;;;;;;;22.42;18.48;96178.28;6207010;23;20016;-58
2021/04/17 04:51:10;;;;;;;7.35;5.38;;;;;;;22.43;18.58;96174.44;6204192;23;20080;-58
2021/04/17 04:53:36;;;;;;;7.45;5.60;;;;;;;22.46;18.63;96174.66;6206344;23;20503;-59
2021/04/17 04:56:01;;;;;;;8.13;5.38;;;;;;;22.47;18.66;96175.47;6206006;23;20464;-59
2021/04/17 04:58:27;;;;;;;7.18;5.60;;;;;;;22.50;18.41;96183.03;6208778;23;20047;-58
2021/04/17 05:00:53;;;;;;;8.52;5.70;;;;;;;22.53;18.70;96179.72;6206411;23;20017;-58
2021/04/17 05:03:18;;;;;;;8.27;5.55;;;;;;;22.56;18.53;96178.31;6205847;23;20019;-59
2021/04/17 05:05:44;;;;;;;8.70;5.45;;;;;;;22.61;18.58;96189.94;6206896;23;20362;-56
2021/04/17 05:08:09;;;;;;;9.40;6.47;;;;;;;22.64;18.36;96189.34;6206358;23;20021;-58
2021/04/17 05:10:35;;;;;;;9.15;6.60;;;;;;;22.69;18.29;96193.06;6205768;23;20016;-58
2021/04/17 05:13:00;;;;;;;9.77;6.30;;;;;;;22.72;18.29;96195.22;6206750;23;20012;-58
2021/04/17 05:15:26;;;;;;;9.18;6.20;;;;;;;22.76;18.20;96194.31;6206565;23;20046;-59
2021/04/17 05:17:51;;;;;;;9.30;6.43;;;;;;;22.79;18.46;96198.34;6205926;23;20012;-58
2021/04/17 05:20:17;;;;;;;8.52;6.40;;;;;;;22.84;17.98;96195.50;6206152;23;20487;-59
2021/04/17 05:22:43;;;;;;;8.30;6.03;;;;;;;22.88;18.06;96196.53;6204971;23;20017;-58
2021/04/17 05:25:09;;;;;;;9.50;6.93;;;;;;;22.94;18.20;96189.03;6204979;23;20052;-58
2021/04/17 05:27:35;;;;;;;8.32;6.05;;;;;;;22.99;17.99;96194.41;6205761;23;20074;-58
2021/04/17 05:30:00;;;;;;;9.15;6.85;;;;;;;23.05;18.05;96195.97;6206230;23;20013;-58
2021/04/17 05:32:26;;;;;;;8.38;6.72;;;;;;;23.06;17.89;96190.19;6204408;23;20384;-57
2021/04/17 05:34:51;;;;;;;6.80;5.72;;;;;;;23.15;18.18;96195.72;6204340;23;20020;-58
2021/04/17 05:37:17;;;;;;;6.63;5.70;;;;;;;23.20;17.94;96194.84;6204555;23;20012;-59
2021/04/17 05:39:43;;;;;;;7.05;6.18;;;;;;;23.25;17.67;96195.53;6206266;23;20365;-58
2021/04/17 05:42:08;;;;;;;6.85;6.05;;;;;;;23.31;17.88;96195.44;6205696;23;20336;-58
2021/04/17 05:44:34;;;;;;;6.88;5.78;;;;;;;23.37;17.72;96195.00;6206087;23;20074;-58
2021/04/17 05:46:59;;;;;;;7.55;6.05;;;;;;;23.42;17.49;96197.63;6205867;23;20017;-58
2021/04/17 05:49:25;;;;;;;6.82;5.82;;;;;;;23.48;17.71;96204.59;6206045;23;20452;-58
2021/04/17 05:51:51;;;;;;;7.03;5.35;;;;;;;23.54;17.71;96199.84;6204731;23;20012;-58
2021/04/17 05:54:17;;;;;;;7.55;6.57;;;;;;;23.59;17.42;96202.47;6206306;23;20008;-58
2021/04/17 05:56:43;;;;;;;5.78;5.07;;;;;;;23.65;17.51;96198.47;6206420;23;20013;-58
2021/04/17 05:59:09;;;;;;;5.85;5.25;;;;;;;23.72;17.40;96209.00;6204723;23;20023;-58
2021/04/17 06:01:34;;;;;;;5.80;5.20;;;;;;;23.77;17.62;96197.16;6206145;23;20013;-58
2021/04/17 06:04:00;;;;;;;5.50;5.00;;;;;;;23.81;17.61;96206.38;6204306;23;20063;-58
2021/04/17 06:06:25;;;;;;;5.63;4.93;;;;;;;23.85;17.63;96199.97;6204818;23;20024;-58
2021/04/17 06:08:51;;;;;;;6.60;5.38;;;;;;;23.91;17.68;96203.41;6205335;23;20046;-58
2021/04/17 06:11:17;;;;;;;5.65;4.80;;;;;;;23.96;17.73;96200.53;6205191;23;20495;-57
2021/04/17 06:13:42;;;;;;;8.63;7.72;;;;;;;24.03;17.67;96205.56;6204672;23;20091;-58
2021/04/17 06:16:09;;;;;;;8.02;7.30;;;;;;;24.08;17.67;96209.00;6205785;23;20033;-59
2021/04/17 06:18:37;;;;;;;8.15;7.35;;;;;;;24.15;17.56;96208.56;6204499;23;20013;-58
2021/04/17 06:21:03;;;;;;;8.30;7.50;;;;;;;24.20;17.74;96199.41;6205196;23;20044;-58
2021/04/17 06:23:29;;;;;;;7.57;6.88;;;;;;;24.26;17.77;96204.47;6203123;23;20012;-58
2021/04/17 06:25:55;;;;;;;8.35;7.15;;;;;;;24.33;17.60;96205.97;6203095;23;20512;-58
2021/04/17 06:28:20;;;;;;;7.70;5.80;;;;;;;24.37;17.82;96206.94;6202944;23;20024;-57
2021/04/17 06:30:46;;;;;;;7.22;6.53;;;;;;;24.40;17.97;96212.59;6204281;23;20020;-57
2021/04/17 06:33:12;;;;;;;6.00;5.50;;;;;;;24.44;17.70;96218.25;6204271;23;20461;-56
2021/04/17 06:35:38;;;;;;;6.70;6.10;;;;;;;24.47;17.42;96212.97;6203945;23;20349;-57
2021/04/17 06:38:04;;;;;;;6.05;5.45;;;;;;;24.48;17.49;96211.84;6204650;23;20027;-57
2021/04/17 06:40:30;;;;;;;5.63;5.13;;;;;;;24.52;17.11;96209.31;6204964;23;20016;-57
2021/04/17 06:42:58;;;;;;;6.75;5.68;;;;;;;24.54;17.28;96211.75;6204479;23;20159;-57
2021/04/17 06:45:24;;;;;;;5.35;4.85;;;;;;;24.56;17.66;96217.72;6202984;23;20013;-58
2021/04/17 06:47:50;;;;;;;4.53;4.13;;;;;;;24.57;17.53;96206.44;6165205;23;20472;-60
2021/04/17 06:50:15;;;;;;;4.78;4.38;;;;;;;24.57;17.56;96214.66;6205879;23;20016;-58
2021/04/17 06:52:41;;;;;;;4.65;4.25;;;;;;;24.58;17.59;96210.81;6205223;23;20032;-57
2021/04/17 06:55:07;;;;;;;4.63;4.22;;;;;;;24.58;17.51;96205.31;6203939;23;20299;-57
2021/04/17 06:57:33;;;;;;;4.75;4.35;;;;;;;24.56;17.49;96209.50;6203852;23;20623;-57
2021/04/17 07:00:04;;;;;;;4.72;4.32;;;;;;;24.57;17.44;96206.44;6205047;23;20095;-56
2021/04/17 07:02:30;;;;;;;5.13;4.72;;;;;;;24.57;17.68;96211.09;6205461;23;20008;-56
2021/04/17 07:04:56;;;;;;;4.78;4.30;;;;;;;24.55;17.16;96205.94;6203691;23;20017;-57
2021/04/17 07:07:21;;;;;;;4.40;4.00;;;;;;;24.54;17.42;96200.78;6179144;23;20401;-58
2021/04/17 07:09:47;;;;;;;4.32;3.75;;;;;;;24.53;17.18;96201.91;6206761;23;20069;-58
2021/04/17 07:12:13;;;;;;;4.40;4.00;;;;;;;24.53;17.50;96202.69;6206126;23;20028;-56
2021/04/17 07:14:48;;;;;;;4.03;3.53;;;;;;;24.50;17.36;96208.81;6205197;23;20012;-57
2021/04/17 07:17:15;;;;;;;4.28;3.85;;;;;;;24.50;17.44;96217.03;6206114;23;20009;-58
2021/04/17 07:19:54;;;;;;;4.50;4.10;;;;;;;24.47;17.34;96209.41;6205167;23;20067;-57
2021/04/17 07:22:22;;;;;;;4.75;3.70;;;;;;;24.45;17.40;96217.94;6204868;23;20016;-57
2021/04/17 07:24:50;;;;;;;3.83;3.47;;;;;;;24.43;17.40;96211.97;6205399;23;20020;-58
